sensor_id;sensor_type;location;lat;lon;timestamp;P1;durP1;ratioP1;P2;durP2;ratioP2
57643;SDS011;43474;46.510;6.686;2023-07-29T00:01:34;3.70;;;2.70;;
57643;SDS011;43474;46.510;6.686;2023-07-29T00:04:01;3.30;;;2.92;;
57643;SDS011;43474;46.510;6.686;2023-07-29T00:06:27;4.53;;;2.80;;
57643;SDS011;43474;46.510;6.686;2023-07-29T00:08:53;4.38;;;2.72;;
57643;SDS011;43474;46.510;6.686;2023-07-29T00:11:18;5.43;;;2.65;;
57643;SDS011;43474;46.510;6.686;2023-07-29T00:13:44;3.88;;;2.75;;
57643;SDS011;43474;46.510;6.686;2023-07-29T00:16:10;3.72;;;2.80;;
57643;SDS011;43474;46.510;6.686;2023-07-29T00:18:35;3.30;;;2.67;;
57643;SDS011;43474;46.510;6.686;2023-07-29T00:21:01;3.78;;;2.40;;
57643;SDS011;43474;46.510;6.686;2023-07-29T00:23:27;4.75;;;3.05;;
57643;SDS011;43474;46.510;6.686;2023-07-29T00:25:52;4.57;;;3.00;;
57643;SDS011;43474;46.510;6.686;2023-07-29T00:28:18;4.72;;;3.00;;
57643;SDS011;43474;46.510;6.686;2023-07-29T00:30:43;5.22;;;3.15;;
57643;SDS011;43474;46.510;6.686;2023-07-29T00:33:09;4.75;;;2.67;;
57643;SDS011;43474;46.510;6.686;2023-07-29T00:35:35;4.10;;;2.95;;
57643;SDS011;43474;46.510;6.686;2023-07-29T00:38:00;5.03;;;2.65;;
57643;SDS011;43474;46.510;6.686;2023-07-29T00:40:27;4.35;;;2.83;;
57643;SDS011;43474;46.510;6.686;2023-07-29T00:42:54;3.30;;;2.40;;
57643;SDS011;43474;46.510;6.686;2023-07-29T00:45:20;4.95;;;2.65;;
57643;SDS011;43474;46.510;6.686;2023-07-29T00:47:46;5.07;;;2.75;;
57643;SDS011;43474;46.510;6.686;2023-07-29T00:50:12;3.60;;;2.45;;
57643;SDS011;43474;46.510;6.686;2023-07-29T00:52:40;4.45;;;2.60;;
57643;SDS011;43474;46.510;6.686;2023-07-29T00:55:05;3.65;;;2.40;;
57643;SDS011;43474;46.510;6.686;2023-07-29T00:57:32;3.80;;;2.92;;
57643;SDS011;43474;46.510;6.686;2023-07-29T00:59:58;2.85;;;2.22;;
57643;SDS011;43474;46.510;6.686;2023-07-29T01:02:24;5.20;;;2.80;;
57643;SDS011;43474;46.510;6.686;2023-07-29T01:04:52;5.13;;;3.15;;
57643;SDS011;43474;46.510;6.686;2023-07-29T01:10:04;4.18;;;2.80;;
57643;SDS011;43474;46.510;6.686;2023-07-29T01:17:52;4.88;;;2.47;;
57643;SDS011;43474;46.510;6.686;2023-07-29T01:20:20;4.40;;;2.63;;
57643;SDS011;43474;46.510;6.686;2023-07-29T01:22:49;4.32;;;2.55;;
57643;SDS011;43474;46.510;6.686;2023-07-29T01:25:14;4.47;;;2.50;;
57643;SDS011;43474;46.510;6.686;2023-07-29T01:27:45;2.72;;;2.25;;
57643;SDS011;43474;46.510;6.686;2023-07-29T01:30:11;3.25;;;2.30;;
57643;SDS011;43474;46.510;6.686;2023-07-29T01:32:46;4.20;;;2.60;;
57643;SDS011;43474;46.510;6.686;2023-07-29T01:35:23;3.17;;;2.55;;
57643;SDS011;43474;46.510;6.686;2023-07-29T01:40:59;4.43;;;2.65;;
57643;SDS011;43474;46.510;6.686;2023-07-29T01:43:27;4.22;;;2.75;;
57643;SDS011;43474;46.510;6.686;2023-07-29T01:45:54;3.38;;;2.40;;
57643;SDS011;43474;46.510;6.686;2023-07-29T01:48:20;5.88;;;2.88;;
57643;SDS011;43474;46.510;6.686;2023-07-29T01:50:45;2.92;;;2.38;;
57643;SDS011;43474;46.510;6.686;2023-07-29T01:53:11;3.75;;;2.38;;
57643;SDS011;43474;46.510;6.686;2023-07-29T01:55:43;3.98;;;2.60;;
57643;SDS011;43474;46.510;6.686;2023-07-29T01:58:10;3.42;;;2.83;;
57643;SDS011;43474;46.510;6.686;2023-07-29T02:00:36;3.33;;;2.67;;
57643;SDS011;43474;46.510;6.686;2023-07-29T02:03:02;3.83;;;2.63;;
57643;SDS011;43474;46.510;6.686;2023-07-29T02:05:27;3.50;;;2.78;;
57643;SDS011;43474;46.510;6.686;2023-07-29T02:07:53;3.55;;;2.40;;
57643;SDS011;43474;46.510;6.686;2023-07-29T02:10:18;3.28;;;2.60;;
57643;SDS011;43474;46.510;6.686;2023-07-29T02:12:44;3.63;;;2.53;;
57643;SDS011;43474;46.510;6.686;2023-07-29T02:15:09;3.60;;;2.83;;
57643;SDS011;43474;46.510;6.686;2023-07-29T02:17:36;4.53;;;2.67;;
57643;SDS011;43474;46.510;6.686;2023-07-29T02:20:01;3.55;;;2.60;;
57643;SDS011;43474;46.510;6.686;2023-07-29T02:22:29;3.17;;;2.70;;
57643;SDS011;43474;46.510;6.686;2023-07-29T02:24:54;4.22;;;2.40;;
57643;SDS011;43474;46.510;6.686;2023-07-29T02:27:20;3.22;;;2.60;;
57643;SDS011;43474;46.510;6.686;2023-07-29T02:29:46;3.30;;;2.53;;
57643;SDS011;43474;46.510;6.686;2023-07-29T02:32:11;3.53;;;2.78;;
57643;SDS011;43474;46.510;6.686;2023-07-29T02:34:37;3.47;;;2.53;;
57643;SDS011;43474;46.510;6.686;2023-07-29T02:37:02;3.45;;;2.53;;
57643;SDS011;43474;46.510;6.686;2023-07-29T02:39:28;3.75;;;2.30;;
57643;SDS011;43474;46.510;6.686;2023-07-29T02:41:54;4.18;;;2.85;;
57643;SDS011;43474;46.510;6.686;2023-07-29T02:44:21;5.00;;;2.88;;
57643;SDS011;43474;46.510;6.686;2023-07-29T02:46:46;4.40;;;2.90;;
57643;SDS011;43474;46.510;6.686;2023-07-29T02:49:12;4.20;;;2.80;;
57643;SDS011;43474;46.510;6.686;2023-07-29T02:51:37;3.50;;;2.70;;
57643;SDS011;43474;46.510;6.686;2023-07-29T02:54:03;3.65;;;2.88;;
57643;SDS011;43474;46.510;6.686;2023-07-29T02:56:28;4.40;;;3.03;;
57643;SDS011;43474;46.510;6.686;2023-07-29T02:58:55;4.50;;;2.80;;
57643;SDS011;43474;46.510;6.686;2023-07-29T03:01:22;3.83;;;2.92;;
57643;SDS011;43474;46.510;6.686;2023-07-29T03:03:48;5.38;;;2.88;;
57643;SDS011;43474;46.510;6.686;2023-07-29T03:06:14;3.90;;;3.10;;
57643;SDS011;43474;46.510;6.686;2023-07-29T03:08:39;5.43;;;2.90;;
57643;SDS011;43474;46.510;6.686;2023-07-29T03:11:06;4.03;;;2.75;;
57643;SDS011;43474;46.510;6.686;2023-07-29T03:13:33;4.00;;;2.40;;
57643;SDS011;43474;46.510;6.686;2023-07-29T03:16:05;4.85;;;2.72;;
57643;SDS011;43474;46.510;6.686;2023-07-29T03:18:35;2.78;;;2.53;;
57643;SDS011;43474;46.510;6.686;2023-07-29T03:21:01;3.80;;;2.90;;
57643;SDS011;43474;46.510;6.686;2023-07-29T03:23:27;3.00;;;2.70;;
57643;SDS011;43474;46.510;6.686;2023-07-29T03:25:54;4.57;;;2.70;;
57643;SDS011;43474;46.510;6.686;2023-07-29T03:28:27;4.22;;;3.00;;
57643;SDS011;43474;46.510;6.686;2023-07-29T03:33:23;3.63;;;2.85;;
57643;SDS011;43474;46.510;6.686;2023-07-29T03:35:50;4.00;;;2.60;;
57643;SDS011;43474;46.510;6.686;2023-07-29T03:38:16;3.50;;;2.95;;
57643;SDS011;43474;46.510;6.686;2023-07-29T03:40:42;3.83;;;3.20;;
57643;SDS011;43474;46.510;6.686;2023-07-29T03:43:08;4.25;;;2.85;;
57643;SDS011;43474;46.510;6.686;2023-07-29T03:45:35;4.43;;;3.13;;
57643;SDS011;43474;46.510;6.686;2023-07-29T03:48:01;3.80;;;2.65;;
57643;SDS011;43474;46.510;6.686;2023-07-29T03:50:28;4.05;;;3.17;;
57643;SDS011;43474;46.510;6.686;2023-07-29T03:52:54;3.17;;;2.58;;
57643;SDS011;43474;46.510;6.686;2023-07-29T03:55:21;5.30;;;2.92;;
57643;SDS011;43474;46.510;6.686;2023-07-29T03:57:46;4.40;;;3.38;;
57643;SDS011;43474;46.510;6.686;2023-07-29T04:00:12;4.32;;;3.17;;
57643;SDS011;43474;46.510;6.686;2023-07-29T04:02:38;3.85;;;2.90;;
57643;SDS011;43474;46.510;6.686;2023-07-29T04:05:04;4.00;;;3.17;;
57643;SDS011;43474;46.510;6.686;2023-07-29T04:07:31;4.45;;;2.92;;
57643;SDS011;43474;46.510;6.686;2023-07-29T04:09:57;4.00;;;3.03;;
57643;SDS011;43474;46.510;6.686;2023-07-29T04:12:23;4.43;;;2.90;;
57643;SDS011;43474;46.510;6.686;2023-07-29T04:14:50;4.63;;;3.13;;
57643;SDS011;43474;46.510;6.686;2023-07-29T04:17:15;5.80;;;3.08;;
57643;SDS011;43474;46.510;6.686;2023-07-29T04:19:41;3.75;;;2.95;;
57643;SDS011;43474;46.510;6.686;2023-07-29T04:22:06;3.90;;;3.20;;
57643;SDS011;43474;46.510;6.686;2023-07-29T04:24:32;4.38;;;3.15;;
57643;SDS011;43474;46.510;6.686;2023-07-29T04:26:57;4.38;;;3.33;;
57643;SDS011;43474;46.510;6.686;2023-07-29T04:29:23;4.00;;;3.33;;
57643;SDS011;43474;46.510;6.686;2023-07-29T04:31:49;3.25;;;2.92;;
57643;SDS011;43474;46.510;6.686;2023-07-29T04:34:15;5.18;;;3.22;;
57643;SDS011;43474;46.510;6.686;2023-07-29T04:36:41;4.72;;;3.03;;
57643;SDS011;43474;46.510;6.686;2023-07-29T04:39:06;4.93;;;2.85;;
57643;SDS011;43474;46.510;6.686;2023-07-29T04:41:32;3.80;;;3.22;;
57643;SDS011;43474;46.510;6.686;2023-07-29T04:43:58;4.55;;;3.33;;
57643;SDS011;43474;46.510;6.686;2023-07-29T04:46:23;3.88;;;3.13;;
57643;SDS011;43474;46.510;6.686;2023-07-29T04:48:49;4.03;;;2.92;;
57643;SDS011;43474;46.510;6.686;2023-07-29T04:51:14;3.97;;;3.35;;
57643;SDS011;43474;46.510;6.686;2023-07-29T04:53:40;3.95;;;2.97;;
57643;SDS011;43474;46.510;6.686;2023-07-29T04:56:05;4.22;;;3.10;;
57643;SDS011;43474;46.510;6.686;2023-07-29T04:58:31;4.75;;;3.22;;
57643;SDS011;43474;46.510;6.686;2023-07-29T05:00:59;4.13;;;2.95;;
57643;SDS011;43474;46.510;6.686;2023-07-29T05:03:25;3.42;;;2.78;;
57643;SDS011;43474;46.510;6.686;2023-07-29T05:05:51;3.75;;;3.20;;
57643;SDS011;43474;46.510;6.686;2023-07-29T05:08:18;4.22;;;2.97;;
57643;SDS011;43474;46.510;6.686;2023-07-29T05:10:44;5.80;;;3.53;;
57643;SDS011;43474;46.510;6.686;2023-07-29T05:13:10;5.28;;;3.13;;
57643;SDS011;43474;46.510;6.686;2023-07-29T05:15:35;3.22;;;2.90;;
57643;SDS011;43474;46.510;6.686;2023-07-29T05:18:01;4.22;;;3.25;;
57643;SDS011;43474;46.510;6.686;2023-07-29T05:20:26;4.53;;;3.50;;
57643;SDS011;43474;46.510;6.686;2023-07-29T05:22:52;5.00;;;3.50;;
57643;SDS011;43474;46.510;6.686;2023-07-29T05:25:18;4.65;;;3.42;;
57643;SDS011;43474;46.510;6.686;2023-07-29T05:27:43;4.10;;;3.50;;
57643;SDS011;43474;46.510;6.686;2023-07-29T05:30:09;4.55;;;3.40;;
57643;SDS011;43474;46.510;6.686;2023-07-29T05:32:34;4.22;;;3.38;;
57643;SDS011;43474;46.510;6.686;2023-07-29T05:35:00;4.68;;;3.35;;
57643;SDS011;43474;46.510;6.686;2023-07-29T05:37:26;4.30;;;3.42;;
57643;SDS011;43474;46.510;6.686;2023-07-29T05:39:51;4.65;;;3.25;;
57643;SDS011;43474;46.510;6.686;2023-07-29T05:42:17;4.65;;;3.83;;
57643;SDS011;43474;46.510;6.686;2023-07-29T05:44:42;4.40;;;3.35;;
57643;SDS011;43474;46.510;6.686;2023-07-29T05:47:08;4.40;;;3.55;;
57643;SDS011;43474;46.510;6.686;2023-07-29T05:49:33;3.88;;;3.10;;
57643;SDS011;43474;46.510;6.686;2023-07-29T05:51:59;4.72;;;3.38;;
57643;SDS011;43474;46.510;6.686;2023-07-29T05:54:24;5.25;;;3.65;;
57643;SDS011;43474;46.510;6.686;2023-07-29T05:56:50;4.10;;;3.42;;
57643;SDS011;43474;46.510;6.686;2023-07-29T05:59:15;3.83;;;3.40;;
57643;SDS011;43474;46.510;6.686;2023-07-29T06:01:41;4.43;;;3.30;;
57643;SDS011;43474;46.510;6.686;2023-07-29T06:04:06;4.88;;;3.90;;
57643;SDS011;43474;46.510;6.686;2023-07-29T06:06:32;5.15;;;3.33;;
57643;SDS011;43474;46.510;6.686;2023-07-29T06:08:57;5.00;;;3.50;;
57643;SDS011;43474;46.510;6.686;2023-07-29T06:11:23;4.03;;;3.35;;
57643;SDS011;43474;46.510;6.686;2023-07-29T06:13:48;5.47;;;3.58;;
57643;SDS011;43474;46.510;6.686;2023-07-29T06:16:14;5.80;;;3.80;;
57643;SDS011;43474;46.510;6.686;2023-07-29T06:18:40;5.25;;;3.50;;
57643;SDS011;43474;46.510;6.686;2023-07-29T06:21:05;5.88;;;3.70;;
57643;SDS011;43474;46.510;6.686;2023-07-29T06:23:35;5.80;;;3.75;;
57643;SDS011;43474;46.510;6.686;2023-07-29T06:26:01;6.47;;;3.70;;
57643;SDS011;43474;46.510;6.686;2023-07-29T06:28:26;4.65;;;3.85;;
57643;SDS011;43474;46.510;6.686;2023-07-29T06:30:52;9.70;;;4.03;;
57643;SDS011;43474;46.510;6.686;2023-07-29T06:33:18;5.97;;;4.07;;
57643;SDS011;43474;46.510;6.686;2023-07-29T06:35:43;5.95;;;3.92;;
57643;SDS011;43474;46.510;6.686;2023-07-29T06:38:09;6.10;;;4.68;;
57643;SDS011;43474;46.510;6.686;2023-07-29T06:40:35;5.25;;;4.00;;
57643;SDS011;43474;46.510;6.686;2023-07-29T06:43:00;6.93;;;4.65;;
57643;SDS011;43474;46.510;6.686;2023-07-29T06:45:26;7.03;;;4.13;;
57643;SDS011;43474;46.510;6.686;2023-07-29T06:47:51;6.85;;;4.47;;
57643;SDS011;43474;46.510;6.686;2023-07-29T06:50:17;6.88;;;4.13;;
57643;SDS011;43474;46.510;6.686;2023-07-29T06:52:43;5.88;;;4.05;;
57643;SDS011;43474;46.510;6.686;2023-07-29T06:55:08;5.50;;;4.50;;
57643;SDS011;43474;46.510;6.686;2023-07-29T06:57:34;6.63;;;4.38;;
57643;SDS011;43474;46.510;6.686;2023-07-29T07:00:00;5.60;;;4.25;;
57643;SDS011;43474;46.510;6.686;2023-07-29T07:02:26;7.35;;;4.07;;
57643;SDS011;43474;46.510;6.686;2023-07-29T07:04:52;5.10;;;4.25;;
57643;SDS011;43474;46.510;6.686;2023-07-29T07:07:17;6.55;;;3.90;;
57643;SDS011;43474;46.510;6.686;2023-07-29T07:09:43;4.95;;;4.40;;
57643;SDS011;43474;46.510;6.686;2023-07-29T07:12:08;8.32;;;4.50;;
57643;SDS011;43474;46.510;6.686;2023-07-29T07:14:34;5.18;;;4.40;;
57643;SDS011;43474;46.510;6.686;2023-07-29T07:16:59;6.05;;;3.85;;
57643;SDS011;43474;46.510;6.686;2023-07-29T07:19:25;6.95;;;4.47;;
57643;SDS011;43474;46.510;6.686;2023-07-29T07:21:50;6.22;;;4.10;;
57643;SDS011;43474;46.510;6.686;2023-07-29T07:24:16;5.07;;;4.15;;
57643;SDS011;43474;46.510;6.686;2023-07-29T07:26:41;4.47;;;3.85;;
57643;SDS011;43474;46.510;6.686;2023-07-29T07:29:07;6.15;;;4.40;;
57643;SDS011;43474;46.510;6.686;2023-07-29T07:31:33;6.00;;;4.07;;
57643;SDS011;43474;46.510;6.686;2023-07-29T07:33:59;6.35;;;4.60;;
57643;SDS011;43474;46.510;6.686;2023-07-29T07:36:25;7.95;;;4.25;;
57643;SDS011;43474;46.510;6.686;2023-07-29T07:38:51;5.97;;;4.07;;
57643;SDS011;43474;46.510;6.686;2023-07-29T07:41:16;6.38;;;4.63;;
57643;SDS011;43474;46.510;6.686;2023-07-29T07:43:42;4.75;;;3.92;;
57643;SDS011;43474;46.510;6.686;2023-07-29T07:46:07;7.93;;;3.90;;
57643;SDS011;43474;46.510;6.686;2023-07-29T07:48:33;6.93;;;4.00;;
57643;SDS011;43474;46.510;6.686;2023-07-29T07:50:59;5.28;;;4.13;;
57643;SDS011;43474;46.510;6.686;2023-07-29T07:53:25;4.57;;;3.65;;
57643;SDS011;43474;46.510;6.686;2023-07-29T07:55:51;5.47;;;3.80;;
57643;SDS011;43474;46.510;6.686;2023-07-29T07:58:16;5.20;;;3.88;;
57643;SDS011;43474;46.510;6.686;2023-07-29T08:00:42;5.10;;;4.07;;
57643;SDS011;43474;46.510;6.686;2023-07-29T08:03:08;5.43;;;4.00;;
57643;SDS011;43474;46.510;6.686;2023-07-29T08:05:33;6.20;;;4.32;;
57643;SDS011;43474;46.510;6.686;2023-07-29T08:07:59;6.43;;;4.78;;
57643;SDS011;43474;46.510;6.686;2023-07-29T08:10:25;5.88;;;3.78;;
57643;SDS011;43474;46.510;6.686;2023-07-29T08:12:53;6.05;;;3.92;;
57643;SDS011;43474;46.510;6.686;2023-07-29T08:15:19;5.18;;;4.07;;
57643;SDS011;43474;46.510;6.686;2023-07-29T08:17:45;5.60;;;4.07;;
57643;SDS011;43474;46.510;6.686;2023-07-29T08:20:10;5.60;;;4.53;;
57643;SDS011;43474;46.510;6.686;2023-07-29T08:22:38;6.65;;;4.32;;
57643;SDS011;43474;46.510;6.686;2023-07-29T08:25:03;4.57;;;3.72;;
57643;SDS011;43474;46.510;6.686;2023-07-29T08:27:29;7.63;;;4.20;;
57643;SDS011;43474;46.510;6.686;2023-07-29T08:29:54;5.90;;;4.05;;
57643;SDS011;43474;46.510;6.686;2023-07-29T08:32:20;6.05;;;4.00;;
57643;SDS011;43474;46.510;6.686;2023-07-29T08:34:46;7.32;;;4.28;;
57643;SDS011;43474;46.510;6.686;2023-07-29T08:37:11;6.68;;;4.10;;
57643;SDS011;43474;46.510;6.686;2023-07-29T08:39:38;6.35;;;4.55;;
57643;SDS011;43474;46.510;6.686;2023-07-29T08:42:04;8.38;;;4.72;;
57643;SDS011;43474;46.510;6.686;2023-07-29T08:44:36;5.75;;;4.25;;
57643;SDS011;43474;46.510;6.686;2023-07-29T08:47:07;8.90;;;4.20;;
57643;SDS011;43474;46.510;6.686;2023-07-29T08:49:32;5.60;;;4.28;;
57643;SDS011;43474;46.510;6.686;2023-07-29T08:51:59;7.68;;;3.97;;
57643;SDS011;43474;46.510;6.686;2023-07-29T08:54:26;5.57;;;4.38;;
57643;SDS011;43474;46.510;6.686;2023-07-29T08:56:51;6.20;;;4.55;;
57643;SDS011;43474;46.510;6.686;2023-07-29T08:59:17;6.60;;;4.35;;
57643;SDS011;43474;46.510;6.686;2023-07-29T09:01:44;6.68;;;4.30;;
57643;SDS011;43474;46.510;6.686;2023-07-29T09:04:10;6.13;;;3.88;;
57643;SDS011;43474;46.510;6.686;2023-07-29T09:06:36;4.25;;;3.78;;
57643;SDS011;43474;46.510;6.686;2023-07-29T09:09:03;6.25;;;4.10;;
57643;SDS011;43474;46.510;6.686;2023-07-29T09:11:30;4.95;;;4.20;;
57643;SDS011;43474;46.510;6.686;2023-07-29T09:13:56;6.85;;;4.30;;
57643;SDS011;43474;46.510;6.686;2023-07-29T09:16:22;5.13;;;4.15;;
57643;SDS011;43474;46.510;6.686;2023-07-29T09:18:48;5.10;;;4.00;;
57643;SDS011;43474;46.510;6.686;2023-07-29T09:21:25;4.72;;;3.85;;
57643;SDS011;43474;46.510;6.686;2023-07-29T09:23:52;6.00;;;4.18;;
57643;SDS011;43474;46.510;6.686;2023-07-29T09:26:27;7.10;;;4.45;;
57643;SDS011;43474;46.510;6.686;2023-07-29T09:28:57;6.65;;;4.20;;
57643;SDS011;43474;46.510;6.686;2023-07-29T09:31:24;4.40;;;3.70;;
57643;SDS011;43474;46.510;6.686;2023-07-29T09:33:57;5.25;;;4.47;;
57643;SDS011;43474;46.510;6.686;2023-07-29T09:36:25;7.13;;;4.32;;
57643;SDS011;43474;46.510;6.686;2023-07-29T09:38:55;6.97;;;4.50;;
57643;SDS011;43474;46.510;6.686;2023-07-29T09:41:22;7.00;;;4.30;;
57643;SDS011;43474;46.510;6.686;2023-07-29T09:43:55;4.25;;;3.72;;
57643;SDS011;43474;46.510;6.686;2023-07-29T09:46:23;4.47;;;4.03;;
57643;SDS011;43474;46.510;6.686;2023-07-29T09:48:53;7.78;;;4.45;;
57643;SDS011;43474;46.510;6.686;2023-07-29T09:51:21;5.75;;;3.97;;
57643;SDS011;43474;46.510;6.686;2023-07-29T09:53:47;5.90;;;4.07;;
57643;SDS011;43474;46.510;6.686;2023-07-29T09:56:15;4.80;;;3.70;;
57643;SDS011;43474;46.510;6.686;2023-07-29T09:58:42;5.55;;;4.30;;
57643;SDS011;43474;46.510;6.686;2023-07-29T10:01:13;5.03;;;3.90;;
57643;SDS011;43474;46.510;6.686;2023-07-29T10:03:39;4.93;;;4.18;;
57643;SDS011;43474;46.510;6.686;2023-07-29T10:06:06;9.38;;;4.32;;
57643;SDS011;43474;46.510;6.686;2023-07-29T10:08:32;7.90;;;4.40;;
57643;SDS011;43474;46.510;6.686;2023-07-29T10:11:01;6.07;;;4.82;;
57643;SDS011;43474;46.510;6.686;2023-07-29T10:13:27;7.10;;;4.28;;
57643;SDS011;43474;46.510;6.686;2023-07-29T10:15:53;4.88;;;4.00;;
57643;SDS011;43474;46.510;6.686;2023-07-29T10:18:22;6.30;;;3.92;;
57643;SDS011;43474;46.510;6.686;2023-07-29T10:20:50;4.38;;;3.53;;
57643;SDS011;43474;46.510;6.686;2023-07-29T10:23:17;5.97;;;4.05;;
57643;SDS011;43474;46.510;6.686;2023-07-29T10:25:49;6.80;;;4.30;;
57643;SDS011;43474;46.510;6.686;2023-07-29T10:28:20;6.35;;;4.05;;
57643;SDS011;43474;46.510;6.686;2023-07-29T10:30:49;4.75;;;4.05;;
57643;SDS011;43474;46.510;6.686;2023-07-29T10:33:15;6.85;;;4.07;;
57643;SDS011;43474;46.510;6.686;2023-07-29T10:35:41;5.18;;;4.18;;
57643;SDS011;43474;46.510;6.686;2023-07-29T10:38:07;7.90;;;4.13;;
57643;SDS011;43474;46.510;6.686;2023-07-29T10:40:46;5.70;;;4.40;;
57643;SDS011;43474;46.510;6.686;2023-07-29T10:43:18;6.25;;;4.18;;
57643;SDS011;43474;46.510;6.686;2023-07-29T10:45:49;7.25;;;4.20;;
57643;SDS011;43474;46.510;6.686;2023-07-29T10:53:54;5.38;;;3.80;;
57643;SDS011;43474;46.510;6.686;2023-07-29T10:56:35;5.00;;;4.13;;
57643;SDS011;43474;46.510;6.686;2023-07-29T11:01:37;5.20;;;3.90;;
57643;SDS011;43474;46.510;6.686;2023-07-29T11:15:11;5.03;;;3.83;;
57643;SDS011;43474;46.510;6.686;2023-07-29T11:17:40;5.80;;;4.03;;
57643;SDS011;43474;46.510;6.686;2023-07-29T11:20:08;4.97;;;3.70;;
57643;SDS011;43474;46.510;6.686;2023-07-29T11:22:35;5.75;;;3.92;;
57643;SDS011;43474;46.510;6.686;2023-07-29T11:25:02;5.53;;;4.13;;
57643;SDS011;43474;46.510;6.686;2023-07-29T11:27:28;6.20;;;4.32;;
57643;SDS011;43474;46.510;6.686;2023-07-29T11:30:00;4.57;;;3.95;;
57643;SDS011;43474;46.510;6.686;2023-07-29T11:32:27;7.38;;;4.32;;
57643;SDS011;43474;46.510;6.686;2023-07-29T11:34:53;5.63;;;4.25;;
57643;SDS011;43474;46.510;6.686;2023-07-29T11:37:19;4.57;;;3.90;;
57643;SDS011;43474;46.510;6.686;2023-07-29T11:39:46;5.05;;;3.92;;
57643;SDS011;43474;46.510;6.686;2023-07-29T11:42:12;5.63;;;4.05;;
57643;SDS011;43474;46.510;6.686;2023-07-29T11:44:39;5.28;;;3.83;;
57643;SDS011;43474;46.510;6.686;2023-07-29T11:47:06;4.40;;;3.78;;
57643;SDS011;43474;46.510;6.686;2023-07-29T11:49:33;5.28;;;3.45;;
57643;SDS011;43474;46.510;6.686;2023-07-29T11:51:59;6.32;;;4.20;;
57643;SDS011;43474;46.510;6.686;2023-07-29T11:54:25;5.45;;;3.72;;
57643;SDS011;43474;46.510;6.686;2023-07-29T11:56:51;5.20;;;3.63;;
57643;SDS011;43474;46.510;6.686;2023-07-29T11:59:16;6.22;;;3.90;;
57643;SDS011;43474;46.510;6.686;2023-07-29T12:01:42;4.47;;;3.58;;
57643;SDS011;43474;46.510;6.686;2023-07-29T12:04:08;4.55;;;3.47;;
57643;SDS011;43474;46.510;6.686;2023-07-29T12:06:34;4.90;;;3.85;;
57643;SDS011;43474;46.510;6.686;2023-07-29T12:09:00;5.15;;;3.63;;
57643;SDS011;43474;46.510;6.686;2023-07-29T12:11:26;5.47;;;3.60;;
57643;SDS011;43474;46.510;6.686;2023-07-29T12:13:55;9.10;;;4.15;;
57643;SDS011;43474;46.510;6.686;2023-07-29T12:16:21;6.07;;;3.95;;
57643;SDS011;43474;46.510;6.686;2023-07-29T12:18:46;7.07;;;3.97;;
57643;SDS011;43474;46.510;6.686;2023-07-29T12:21:14;4.97;;;3.83;;
57643;SDS011;43474;46.510;6.686;2023-07-29T12:23:39;6.10;;;3.78;;
57643;SDS011;43474;46.510;6.686;2023-07-29T12:26:05;4.50;;;3.90;;
57643;SDS011;43474;46.510;6.686;2023-07-29T12:28:31;5.93;;;3.83;;
57643;SDS011;43474;46.510;6.686;2023-07-29T12:30:57;4.55;;;3.80;;
57643;SDS011;43474;46.510;6.686;2023-07-29T12:33:30;4.85;;;3.60;;
57643;SDS011;43474;46.510;6.686;2023-07-29T12:35:56;4.93;;;3.67;;
57643;SDS011;43474;46.510;6.686;2023-07-29T12:38:22;5.25;;;3.88;;
57643;SDS011;43474;46.510;6.686;2023-07-29T12:40:48;5.78;;;3.30;;
57643;SDS011;43474;46.510;6.686;2023-07-29T12:43:13;4.97;;;3.47;;
57643;SDS011;43474;46.510;6.686;2023-07-29T12:45:39;6.05;;;3.70;;
57643;SDS011;43474;46.510;6.686;2023-07-29T12:48:09;5.78;;;3.85;;
57643;SDS011;43474;46.510;6.686;2023-07-29T12:50:35;4.45;;;3.72;;
57643;SDS011;43474;46.510;6.686;2023-07-29T12:53:01;4.28;;;3.42;;
57643;SDS011;43474;46.510;6.686;2023-07-29T12:55:27;6.55;;;4.03;;
57643;SDS011;43474;46.510;6.686;2023-07-29T12:57:52;4.68;;;3.53;;
57643;SDS011;43474;46.510;6.686;2023-07-29T13:00:18;5.95;;;3.67;;
57643;SDS011;43474;46.510;6.686;2023-07-29T13:02:43;5.65;;;3.70;;
57643;SDS011;43474;46.510;6.686;2023-07-29T13:05:09;4.45;;;3.60;;
57643;SDS011;43474;46.510;6.686;2023-07-29T13:07:37;4.70;;;3.60;;
57643;SDS011;43474;46.510;6.686;2023-07-29T13:10:06;5.93;;;3.83;;
57643;SDS011;43474;46.510;6.686;2023-07-29T13:12:32;4.38;;;3.30;;
57643;SDS011;43474;46.510;6.686;2023-07-29T13:14:57;5.45;;;3.63;;
57643;SDS011;43474;46.510;6.686;2023-07-29T13:17:23;4.18;;;3.40;;
57643;SDS011;43474;46.510;6.686;2023-07-29T13:19:49;4.78;;;3.97;;
57643;SDS011;43474;46.510;6.686;2023-07-29T13:22:14;4.72;;;3.78;;
57643;SDS011;43474;46.510;6.686;2023-07-29T13:24:40;5.45;;;4.00;;
57643;SDS011;43474;46.510;6.686;2023-07-29T13:27:06;7.22;;;3.58;;
57643;SDS011;43474;46.510;6.686;2023-07-29T13:29:32;5.20;;;3.38;;
57643;SDS011;43474;46.510;6.686;2023-07-29T13:31:57;4.93;;;3.38;;
57643;SDS011;43474;46.510;6.686;2023-07-29T13:34:23;4.57;;;3.08;;
57643;SDS011;43474;46.510;6.686;2023-07-29T13:36:48;5.07;;;3.53;;
57643;SDS011;43474;46.510;6.686;2023-07-29T13:39:14;4.50;;;3.33;;
57643;SDS011;43474;46.510;6.686;2023-07-29T13:41:40;4.20;;;3.55;;
57643;SDS011;43474;46.510;6.686;2023-07-29T13:44:06;4.20;;;3.22;;
57643;SDS011;43474;46.510;6.686;2023-07-29T13:46:31;4.32;;;3.28;;
57643;SDS011;43474;46.510;6.686;2023-07-29T13:48:57;5.55;;;3.50;;
57643;SDS011;43474;46.510;6.686;2023-07-29T13:51:22;5.05;;;3.25;;
57643;SDS011;43474;46.510;6.686;2023-07-29T13:53:48;4.22;;;3.15;;
57643;SDS011;43474;46.510;6.686;2023-07-29T13:56:13;3.88;;;3.20;;
57643;SDS011;43474;46.510;6.686;2023-07-29T13:58:39;3.95;;;2.85;;
57643;SDS011;43474;46.510;6.686;2023-07-29T14:01:05;4.15;;;2.92;;
57643;SDS011;43474;46.510;6.686;2023-07-29T14:03:31;5.10;;;3.28;;
57643;SDS011;43474;46.510;6.686;2023-07-29T14:05:56;4.97;;;2.75;;
57643;SDS011;43474;46.510;6.686;2023-07-29T14:08:22;3.38;;;2.95;;
57643;SDS011;43474;46.510;6.686;2023-07-29T14:10:50;5.10;;;3.30;;
57643;SDS011;43474;46.510;6.686;2023-07-29T14:13:16;3.60;;;2.85;;
57643;SDS011;43474;46.510;6.686;2023-07-29T14:15:41;3.85;;;3.03;;
57643;SDS011;43474;46.510;6.686;2023-07-29T14:18:07;3.85;;;3.10;;
57643;SDS011;43474;46.510;6.686;2023-07-29T14:20:33;4.30;;;3.60;;
57643;SDS011;43474;46.510;6.686;2023-07-29T14:22:58;4.88;;;2.92;;
57643;SDS011;43474;46.510;6.686;2023-07-29T14:25:24;3.65;;;3.03;;
57643;SDS011;43474;46.510;6.686;2023-07-29T14:27:50;3.60;;;3.00;;
57643;SDS011;43474;46.510;6.686;2023-07-29T14:30:15;3.55;;;3.20;;
57643;SDS011;43474;46.510;6.686;2023-07-29T14:32:41;4.00;;;3.05;;
57643;SDS011;43474;46.510;6.686;2023-07-29T14:35:07;3.55;;;3.10;;
57643;SDS011;43474;46.510;6.686;2023-07-29T14:37:33;3.53;;;2.80;;
57643;SDS011;43474;46.510;6.686;2023-07-29T14:39:59;3.03;;;2.63;;
57643;SDS011;43474;46.510;6.686;2023-07-29T14:42:26;4.25;;;3.08;;
57643;SDS011;43474;46.510;6.686;2023-07-29T14:44:52;3.20;;;2.70;;
57643;SDS011;43474;46.510;6.686;2023-07-29T14:47:19;3.10;;;2.80;;
57643;SDS011;43474;46.510;6.686;2023-07-29T14:49:45;3.85;;;3.15;;
57643;SDS011;43474;46.510;6.686;2023-07-29T14:52:10;4.25;;;3.30;;
57643;SDS011;43474;46.510;6.686;2023-07-29T14:54:36;4.22;;;2.88;;
57643;SDS011;43474;46.510;6.686;2023-07-29T14:57:02;4.90;;;3.03;;
57643;SDS011;43474;46.510;6.686;2023-07-29T14:59:28;5.85;;;3.30;;
57643;SDS011;43474;46.510;6.686;2023-07-29T15:01:53;9.73;;;3.05;;
57643;SDS011;43474;46.510;6.686;2023-07-29T15:04:19;3.83;;;3.00;;
57643;SDS011;43474;46.510;6.686;2023-07-29T15:06:44;8.93;;;3.38;;
57643;SDS011;43474;46.510;6.686;2023-07-29T15:09:11;5.82;;;3.10;;
57643;SDS011;43474;46.510;6.686;2023-07-29T15:11:36;7.18;;;3.45;;
57643;SDS011;43474;46.510;6.686;2023-07-29T15:14:02;5.45;;;3.33;;
57643;SDS011;43474;46.510;6.686;2023-07-29T15:16:28;4.97;;;2.88;;